createdAt,value
2019-05-18T00:01:46.815Z,18.63
2019-05-18T00:04:15.853Z,18.43
2019-05-18T00:06:44.867Z,20.60
2019-05-18T00:09:13.770Z,18.93
2019-05-18T00:11:42.791Z,19.37
2019-05-18T00:14:11.755Z,19.43
2019-05-18T00:16:40.788Z,17.37
2019-05-18T00:19:09.836Z,19.33
2019-05-18T00:21:38.787Z,18.10
2019-05-18T00:24:07.859Z,19.13
2019-05-18T00:26:36.820Z,21.47
2019-05-18T00:29:05.874Z,21.30
2019-05-18T00:31:34.879Z,20.03
2019-05-18T00:34:03.846Z,20.43
2019-05-18T00:36:32.791Z,19.97
2019-05-18T00:39:01.683Z,19.70
2019-05-18T00:41:30.580Z,21.80
2019-05-18T00:43:59.625Z,18.90
2019-05-18T00:46:28.503Z,20.57
2019-05-18T00:48:57.404Z,21.53
2019-05-18T00:51:26.620Z,18.60
2019-05-18T00:53:55.907Z,18.93
2019-05-18T00:56:24.851Z,21.63
2019-05-18T00:58:53.752Z,20.50
2019-05-18T01:01:22.968Z,22.30
2019-05-18T01:03:51.928Z,20.17
2019-05-18T01:06:21.444Z,23.13
2019-05-18T01:08:50.545Z,20.83
2019-05-18T01:11:19.580Z,19.33
2019-05-18T01:13:48.551Z,22.30
2019-05-18T01:16:17.507Z,22.40
2019-05-18T01:18:46.484Z,21.53
2019-05-18T01:21:15.513Z,17.23
2019-05-18T01:23:44.388Z,18.43
2019-05-18T01:26:13.436Z,16.93
2019-05-18T01:28:42.428Z,16.37
2019-05-18T01:31:11.408Z,16.97
2019-05-18T01:33:40.289Z,15.10
2019-05-18T01:36:09.328Z,15.17
2019-05-18T01:38:38.281Z,14.93
2019-05-18T01:41:07.300Z,14.53
2019-05-18T01:43:36.221Z,16.13
2019-05-18T01:46:05.228Z,17.47
2019-05-18T01:48:34.105Z,18.47
2019-05-18T01:51:02.983Z,18.67
2019-05-18T01:53:31.949Z,21.23
2019-05-18T01:56:00.829Z,17.77
2019-05-18T01:58:29.773Z,18.03
2019-05-18T02:00:58.677Z,17.57
2019-05-18T02:03:27.617Z,20.40
2019-05-18T02:05:56.578Z,18.83
2019-05-18T02:08:26.313Z,18.07
2019-05-18T02:10:55.369Z,18.77
2019-05-18T02:13:24.901Z,18.37
2019-05-18T02:15:53.889Z,18.20
2019-05-18T02:18:29.111Z,18.00
2019-05-18T02:20:53.797Z,18.37
2019-05-18T02:23:22.749Z,18.40
2019-05-18T02:25:52.398Z,19.20
2019-05-18T02:28:21.566Z,17.93
2019-05-18T02:30:50.639Z,17.37
2019-05-18T02:33:19.681Z,18.83
2019-05-18T02:35:48.618Z,18.40
2019-05-18T02:38:17.955Z,18.57
2019-05-18T02:40:47.463Z,18.70
2019-05-18T02:43:16.844Z,18.53
2019-05-18T02:45:45.941Z,17.77
2019-05-18T02:48:14.956Z,19.23
2019-05-18T02:50:43.989Z,19.67
2019-05-18T02:53:13.016Z,19.73
2019-05-18T02:55:42.056Z,18.17
2019-05-18T02:58:10.989Z,18.97
2019-05-18T03:00:41.064Z,16.33
2019-05-18T03:03:10.047Z,19.90
2019-05-18T03:05:39.167Z,18.63
2019-05-18T03:08:08.287Z,18.07
2019-05-18T03:10:37.230Z,18.17
2019-05-18T03:13:06.709Z,17.70
2019-05-18T03:15:35.744Z,17.73
2019-05-18T03:18:05.197Z,17.23
2019-05-18T03:20:34.646Z,17.73
2019-05-18T03:23:03.699Z,16.10
2019-05-18T03:25:32.971Z,17.03
2019-05-18T03:28:02.240Z,17.03
2019-05-18T03:30:30.866Z,19.87
2019-05-18T03:32:59.867Z,18.77
2019-05-18T03:35:28.817Z,18.07
2019-05-18T03:37:58.603Z,18.37
2019-05-18T03:40:27.536Z,16.60
2019-05-18T03:42:56.603Z,16.63
2019-05-18T03:45:25.534Z,16.07
2019-05-18T03:47:54.572Z,17.70
2019-05-18T03:50:23.686Z,16.50
2019-05-18T03:52:52.663Z,16.43
2019-05-18T03:55:21.757Z,17.53
2019-05-18T03:57:50.641Z,15.03
2019-05-18T04:00:19.740Z,16.53
2019-05-18T04:02:48.727Z,17.00
2019-05-18T04:05:17.951Z,15.57
2019-05-18T04:07:46.847Z,16.07
2019-05-18T04:10:22.820Z,15.87
2019-05-18T04:12:51.711Z,17.43
2019-05-18T04:15:20.732Z,16.37
2019-05-18T04:17:50.122Z,17.37
2019-05-18T04:20:19.173Z,17.77
2019-05-18T04:22:48.743Z,17.57
2019-05-18T04:25:17.692Z,17.27
2019-05-18T04:27:46.660Z,18.87
2019-05-18T04:30:15.913Z,17.37
2019-05-18T04:32:44.861Z,20.30
2019-05-18T04:35:13.914Z,18.07
2019-05-18T04:37:43.182Z,19.50
2019-05-18T04:40:12.979Z,18.67
2019-05-18T04:42:42.024Z,18.80
2019-05-18T04:45:11.216Z,18.93
2019-05-18T04:47:40.229Z,20.57
2019-05-18T04:50:09.377Z,18.03
2019-05-18T04:52:38.259Z,19.87
2019-05-18T04:55:07.411Z,21.20
2019-05-18T04:57:36.381Z,19.37
2019-05-18T05:00:05.861Z,20.43
2019-05-18T05:02:34.828Z,21.23
2019-05-18T05:05:03.964Z,19.43
2019-05-18T05:07:32.861Z,18.43
2019-05-18T05:10:04.647Z,19.43
2019-05-18T05:12:32.637Z,20.43
2019-05-18T05:15:01.654Z,21.60
2019-05-18T05:17:30.901Z,20.00
2019-05-18T05:19:59.849Z,19.23
2019-05-18T05:22:29.084Z,21.60
2019-05-18T05:24:57.994Z,22.23
2019-05-18T05:27:26.872Z,22.27
2019-05-18T05:29:55.769Z,21.80
2019-05-18T05:32:25.201Z,20.83
2019-05-18T05:34:54.128Z,21.90
2019-05-18T05:37:23.169Z,20.77
2019-05-18T05:39:52.206Z,21.87
2019-05-18T05:42:21.393Z,22.47
2019-05-18T05:44:50.485Z,22.20
2019-05-18T05:47:19.513Z,22.50
2019-05-18T05:49:48.473Z,21.90
2019-05-18T05:52:17.735Z,21.37
2019-05-18T05:54:46.609Z,20.73
2019-05-18T05:57:15.742Z,21.50
2019-05-18T05:59:44.702Z,21.33
2019-05-18T06:02:13.584Z,20.60
2019-05-18T06:04:42.565Z,21.23
2019-05-18T06:07:11.625Z,21.57
2019-05-18T06:09:40.585Z,21.60
2019-05-18T06:12:09.629Z,20.93
2019-05-18T06:14:39.090Z,20.07
2019-05-18T06:17:08.593Z,20.27
2019-05-18T06:19:37.569Z,20.57
2019-05-18T06:22:06.478Z,20.57
2019-05-18T06:24:35.380Z,21.20
2019-05-18T06:27:04.330Z,20.27
2019-05-18T06:29:33.274Z,20.27
2019-05-18T06:32:02.255Z,20.33
2019-05-18T06:34:31.130Z,20.73
2019-05-18T06:37:00.462Z,20.00
2019-05-18T06:39:29.455Z,19.60
2019-05-18T06:41:58.398Z,20.33
2019-05-18T06:44:27.414Z,20.50
2019-05-18T06:46:56.412Z,20.40
2019-05-18T06:49:25.411Z,20.73
2019-05-18T06:51:54.426Z,21.73
2019-05-18T06:54:23.515Z,19.57
2019-05-18T06:56:53.180Z,18.90
2019-05-18T06:59:23.139Z,20.07
2019-05-18T07:01:52.122Z,20.07
2019-05-18T07:04:21.126Z,21.00
2019-05-18T07:06:50.117Z,19.80
2019-05-18T07:09:19.163Z,20.53
2019-05-18T07:11:48.199Z,20.27
2019-05-18T07:14:25.420Z,19.40
2019-05-18T07:16:48.098Z,19.53
2019-05-18T07:19:17.202Z,19.07
2019-05-18T07:21:46.104Z,18.53
2019-05-18T07:24:15.605Z,18.70
2019-05-18T07:26:45.073Z,19.67
2019-05-18T07:29:14.479Z,19.07
2019-05-18T07:31:43.544Z,19.40
2019-05-18T07:34:12.571Z,18.40
2019-05-18T07:36:41.544Z,18.40
2019-05-18T07:39:10.434Z,17.93
2019-05-18T07:41:46.670Z,18.47
2019-05-18T07:44:10.463Z,19.33
2019-05-18T07:46:39.462Z,17.70
2019-05-18T07:49:08.763Z,17.83
2019-05-18T07:51:38.068Z,17.73
2019-05-18T07:54:06.988Z,18.33
2019-05-18T07:56:36.203Z,17.47
2019-05-18T07:59:05.264Z,17.67
2019-05-18T08:01:34.555Z,16.70
2019-05-18T08:04:03.675Z,15.57
2019-05-18T08:06:32.748Z,16.63
2019-05-18T08:09:01.720Z,16.60
2019-05-18T08:11:30.721Z,15.37
2019-05-18T08:14:00.021Z,16.87
2019-05-18T08:16:29.310Z,16.33
2019-05-18T08:18:58.594Z,16.07
2019-05-18T08:21:27.632Z,16.83
2019-05-18T08:23:56.779Z,13.73
2019-05-18T08:26:25.700Z,14.17
2019-05-18T08:28:54.849Z,14.30
2019-05-18T08:31:23.827Z,13.93
2019-05-18T08:33:52.763Z,14.10
2019-05-18T08:36:21.852Z,13.40
2019-05-18T08:38:51.816Z,13.73
2019-05-18T08:41:20.854Z,14.33
2019-05-18T08:43:49.740Z,13.27
2019-05-18T08:46:19.085Z,14.53
2019-05-18T08:48:47.983Z,14.90
2019-05-18T08:51:16.880Z,14.80
2019-05-18T08:53:45.842Z,14.03
2019-05-18T08:56:14.813Z,13.73
2019-05-18T08:58:43.848Z,14.47
2019-05-18T09:01:12.869Z,13.50
2019-05-18T09:03:41.885Z,13.67
2019-05-18T09:06:11.145Z,12.50
2019-05-18T09:08:40.117Z,9.97
2019-05-18T09:11:09.138Z,9.40
2019-05-18T09:13:38.101Z,7.80
2019-05-18T09:16:07.041Z,8.37
2019-05-18T09:18:36.077Z,8.00
2019-05-18T09:21:05.185Z,9.07
2019-05-18T09:23:34.190Z,11.67
2019-05-18T09:26:03.243Z,9.87
2019-05-18T09:28:32.223Z,10.80
2019-05-18T09:31:01.194Z,8.10
2019-05-18T09:33:30.154Z,7.60
2019-05-18T09:35:59.255Z,9.10
2019-05-18T09:38:28.310Z,9.67
2019-05-18T09:40:57.246Z,9.05
2019-05-18T09:43:26.266Z,8.18
2019-05-18T09:45:55.710Z,9.00
2019-05-18T09:48:24.934Z,9.10
2019-05-18T09:50:53.912Z,9.05
2019-05-18T09:53:22.905Z,9.73
2019-05-18T09:55:51.948Z,8.90
2019-05-18T09:58:21.007Z,8.53
2019-05-18T10:00:50.052Z,8.63
2019-05-18T10:03:19.075Z,9.43
2019-05-18T10:05:48.583Z,9.83
2019-05-18T10:08:17.539Z,8.15
2019-05-18T10:10:46.955Z,8.45
2019-05-18T10:13:15.944Z,7.97
2019-05-18T10:15:44.877Z,8.03
2019-05-18T10:18:13.947Z,8.00
2019-05-18T10:20:43.286Z,7.93
2019-05-18T10:23:13.836Z,8.20
2019-05-18T10:25:43.107Z,10.25
2019-05-18T10:28:12.023Z,8.73
2019-05-18T10:30:41.371Z,7.78
2019-05-18T10:33:10.490Z,7.55
2019-05-18T10:35:39.548Z,7.35
2019-05-18T10:38:08.646Z,7.40
2019-05-18T10:40:37.679Z,7.00
2019-05-18T10:43:06.651Z,6.90
2019-05-18T10:45:35.800Z,6.28
2019-05-18T10:48:04.914Z,5.45
2019-05-18T10:50:34.111Z,5.80
2019-05-18T10:53:03.476Z,4.87
2019-05-18T10:55:32.573Z,4.53
2019-05-18T10:58:01.664Z,5.42
2019-05-18T11:00:30.947Z,6.45
2019-05-18T11:02:59.859Z,6.95
2019-05-18T11:05:29.143Z,7.03
2019-05-18T11:07:58.183Z,6.42
2019-05-18T11:10:27.290Z,6.40
2019-05-18T11:12:56.307Z,6.35
2019-05-18T11:15:25.492Z,6.95
2019-05-18T11:17:54.447Z,6.05
2019-05-18T11:20:23.515Z,5.47
2019-05-18T11:22:52.621Z,5.95
2019-05-18T11:25:21.804Z,5.35
2019-05-18T11:27:50.796Z,6.33
2019-05-18T11:30:19.963Z,7.17
2019-05-18T11:32:49.091Z,7.40
2019-05-18T11:35:18.705Z,5.87
2019-05-18T11:37:47.776Z,7.33
2019-05-18T11:40:16.912Z,6.40
2019-05-18T11:42:45.976Z,5.30
2019-05-18T11:45:17.287Z,5.17
2019-05-18T11:47:46.442Z,4.72
2019-05-18T11:50:16.012Z,5.10
2019-05-18T11:52:45.048Z,4.33
2019-05-18T11:55:14.341Z,4.67
2019-05-18T11:57:43.396Z,4.78
2019-05-18T12:00:15.253Z,5.47
2019-05-18T12:02:44.424Z,5.67
2019-05-18T12:05:14.386Z,5.55
2019-05-18T12:07:43.377Z,5.08
2019-05-18T12:10:12.862Z,5.33
2019-05-18T12:12:42.369Z,4.90
2019-05-18T12:15:12.198Z,6.17
2019-05-18T12:17:41.173Z,4.80
2019-05-18T12:20:10.969Z,4.97
2019-05-18T12:22:40.197Z,5.10
2019-05-18T12:25:09.745Z,5.87
2019-05-18T12:27:38.873Z,7.17
2019-05-18T12:30:10.058Z,7.45
2019-05-18T12:32:39.106Z,7.55
2019-05-18T12:35:08.357Z,7.15
2019-05-18T12:37:37.418Z,8.10
2019-05-18T12:40:07.186Z,7.45
2019-05-18T12:42:36.294Z,7.87
2019-05-18T12:45:06.479Z,7.58
2019-05-18T12:47:35.538Z,7.87
2019-05-18T12:50:04.678Z,7.72
2019-05-18T12:52:34.165Z,6.90
2019-05-18T12:55:03.274Z,7.33
2019-05-18T12:57:32.650Z,7.20
2019-05-18T13:00:02.035Z,8.43
2019-05-18T13:02:31.098Z,8.33
2019-05-18T13:05:00.042Z,7.25
2019-05-18T13:07:28.927Z,8.30
2019-05-18T13:09:57.904Z,7.80
2019-05-18T13:12:26.811Z,6.60
2019-05-18T13:14:56.002Z,7.53
2019-05-18T13:17:25.031Z,6.20
2019-05-18T13:19:54.054Z,6.37
2019-05-18T13:22:23.018Z,6.42
2019-05-18T13:24:52.425Z,6.40
2019-05-18T13:27:21.466Z,6.33
2019-05-18T13:29:51.135Z,6.47
2019-05-18T13:32:20.163Z,6.40
2019-05-18T13:34:49.550Z,6.80
2019-05-18T13:37:18.975Z,6.97
2019-05-18T13:39:48.392Z,6.97
2019-05-18T13:42:17.503Z,6.45
2019-05-18T13:44:46.455Z,6.40
2019-05-18T13:47:15.555Z,6.65
2019-05-18T13:49:44.571Z,6.33
2019-05-18T13:52:13.791Z,6.58
2019-05-18T13:54:42.788Z,6.15
2019-05-18T13:57:11.803Z,6.90
2019-05-18T13:59:40.788Z,7.12
2019-05-18T14:02:09.956Z,6.78
2019-05-18T14:04:38.909Z,6.15
2019-05-18T14:07:08.228Z,6.47
2019-05-18T14:09:37.236Z,5.80
2019-05-18T14:12:12.612Z,5.47
2019-05-18T14:14:41.584Z,6.17
2019-05-18T14:17:10.582Z,6.15
2019-05-18T14:19:39.560Z,4.03
2019-05-18T14:22:08.600Z,5.47
2019-05-18T14:24:37.578Z,5.05
2019-05-18T14:27:06.556Z,5.45
2019-05-18T14:29:35.681Z,5.50
2019-05-18T14:32:04.792Z,4.92
2019-05-18T14:34:33.795Z,10.13
2019-05-18T14:37:02.765Z,4.95
2019-05-18T14:39:31.889Z,5.35
2019-05-18T14:42:01.088Z,4.50
2019-05-18T14:44:30.068Z,4.90
2019-05-18T14:46:59.077Z,5.37
2019-05-18T14:49:28.148Z,4.40
2019-05-18T14:51:57.113Z,4.33
2019-05-18T14:54:26.089Z,3.80
2019-05-18T14:56:55.069Z,4.10
2019-05-18T14:59:24.169Z,4.30
2019-05-18T15:01:53.284Z,3.45
2019-05-18T15:04:22.677Z,4.42
2019-05-18T15:06:51.745Z,4.12
2019-05-18T15:09:20.933Z,4.53
2019-05-18T15:11:49.825Z,5.45
2019-05-18T15:14:18.817Z,4.00
2019-05-18T15:16:47.737Z,4.12
2019-05-18T15:19:16.885Z,4.17
2019-05-18T15:21:45.889Z,4.55
2019-05-18T15:24:14.846Z,4.20
2019-05-18T15:26:43.912Z,3.90
2019-05-18T15:29:12.875Z,3.92
2019-05-18T15:31:41.814Z,4.03
2019-05-18T15:34:10.810Z,3.62
2019-05-18T15:36:40.215Z,4.20
2019-05-18T15:39:09.238Z,4.15
2019-05-18T15:41:38.227Z,3.95
2019-05-18T15:44:07.265Z,4.10
2019-05-18T15:46:36.308Z,4.05
2019-05-18T15:49:05.372Z,3.62
2019-05-18T15:51:34.492Z,3.50
2019-05-18T15:54:03.617Z,3.20
2019-05-18T15:56:32.583Z,3.25
2019-05-18T15:59:01.540Z,3.12
2019-05-18T16:01:30.436Z,3.60
2019-05-18T16:03:59.475Z,3.65
2019-05-18T16:06:28.520Z,3.80
2019-05-18T16:08:57.540Z,3.45
2019-05-18T16:11:26.568Z,3.85
2019-05-18T16:13:55.532Z,3.27
2019-05-18T16:16:24.669Z,3.00
2019-05-18T16:18:53.627Z,3.22
2019-05-18T16:21:22.932Z,3.10
2019-05-18T16:23:52.215Z,3.00
2019-05-18T16:26:22.116Z,4.17
2019-05-18T16:28:51.215Z,2.98
2019-05-18T16:31:20.216Z,3.37
2019-05-18T16:33:49.231Z,3.95
2019-05-18T16:36:18.185Z,3.67
2019-05-18T16:38:47.176Z,4.10
2019-05-18T16:41:16.196Z,3.50
2019-05-18T16:43:45.508Z,3.42
2019-05-18T16:46:14.880Z,3.17
2019-05-18T16:48:43.938Z,3.10
2019-05-18T16:51:12.969Z,2.90
2019-05-18T16:53:42.035Z,3.20
2019-05-18T16:56:11.005Z,3.15
2019-05-18T16:58:39.973Z,3.42
2019-05-18T17:01:09.037Z,3.45
2019-05-18T17:03:38.349Z,3.67
2019-05-18T17:06:07.415Z,3.75
2019-05-18T17:08:36.368Z,4.10
2019-05-18T17:11:05.426Z,4.33
2019-05-18T17:13:34.454Z,3.98
2019-05-18T17:16:04.309Z,4.12
2019-05-18T17:18:33.359Z,4.28
2019-05-18T17:21:02.453Z,5.63
2019-05-18T17:23:31.481Z,4.17
2019-05-18T17:26:00.398Z,4.10
2019-05-18T17:28:29.785Z,4.92
2019-05-18T17:30:58.749Z,3.45
2019-05-18T17:33:27.702Z,3.58
2019-05-18T17:36:00.412Z,4.08
2019-05-18T17:38:27.865Z,4.40
2019-05-18T17:40:57.130Z,3.85
2019-05-18T17:43:26.100Z,3.87
2019-05-18T17:45:55.151Z,3.98
2019-05-18T17:48:24.202Z,3.85
2019-05-18T17:50:53.170Z,5.25
2019-05-18T17:53:22.706Z,6.12
2019-05-18T17:55:51.802Z,5.30
2019-05-18T17:58:21.088Z,7.10
2019-05-18T18:00:50.225Z,4.95
2019-05-18T18:03:19.333Z,5.75
2019-05-18T18:05:48.367Z,5.67
2019-05-18T18:08:17.427Z,5.12
2019-05-18T18:10:46.387Z,5.55
2019-05-18T18:13:15.798Z,5.75
2019-05-18T18:15:44.777Z,5.35
2019-05-18T18:18:13.763Z,4.63
2019-05-18T18:20:42.648Z,4.97
2019-05-18T18:23:11.683Z,7.08
2019-05-18T18:25:40.719Z,7.17
2019-05-18T18:28:10.151Z,6.28
2019-05-18T18:30:39.267Z,6.15
2019-05-18T18:33:08.255Z,6.00
2019-05-18T18:35:39.530Z,38.65
2019-05-18T18:38:08.236Z,7.40
2019-05-18T18:40:37.296Z,7.37
2019-05-18T18:43:06.756Z,11.08
2019-05-18T18:45:35.868Z,7.15
2019-05-18T18:48:05.356Z,6.00
2019-05-18T18:50:34.712Z,6.20
2019-05-18T18:53:03.749Z,7.77
2019-05-18T18:55:32.733Z,6.57
2019-05-18T18:58:01.948Z,9.37
2019-05-18T19:00:31.480Z,9.30
2019-05-18T19:03:00.536Z,8.70
2019-05-18T19:05:29.654Z,11.03
2019-05-18T19:07:58.564Z,13.87
2019-05-18T19:10:27.631Z,17.13
2019-05-18T19:12:56.745Z,14.57
2019-05-18T19:15:25.816Z,7.67
2019-05-18T19:17:54.897Z,9.73
2019-05-18T19:20:23.876Z,8.63
2019-05-18T19:22:52.825Z,19.60
2019-05-18T19:25:21.835Z,10.53
2019-05-18T19:27:54.970Z,7.23
2019-05-18T19:30:21.704Z,8.00
2019-05-18T19:32:50.899Z,8.73
2019-05-18T19:35:19.901Z,7.00
2019-05-18T19:37:49.149Z,6.57
2019-05-18T19:40:18.429Z,7.00
2019-05-18T19:42:47.559Z,7.17
2019-05-18T19:45:16.773Z,6.90
2019-05-18T19:47:46.313Z,7.73
2019-05-18T19:50:15.530Z,7.60
2019-05-18T19:52:44.522Z,8.47
2019-05-18T19:55:13.577Z,7.58
2019-05-18T19:57:42.566Z,7.27
2019-05-18T20:00:12.173Z,6.80
2019-05-18T20:02:41.262Z,7.47
2019-05-18T20:05:10.907Z,7.67
2019-05-18T20:07:40.321Z,7.00
2019-05-18T20:10:09.838Z,7.37
2019-05-18T20:12:38.857Z,7.60
2019-05-18T20:15:09.576Z,7.77
2019-05-18T20:17:39.066Z,7.43
2019-05-18T20:20:09.269Z,7.37
2019-05-18T20:22:38.367Z,7.10
2019-05-18T20:25:07.655Z,7.10
2019-05-18T20:27:36.734Z,7.93
2019-05-18T20:30:06.331Z,6.90
2019-05-18T20:32:35.303Z,6.67
2019-05-18T20:35:04.456Z,6.92
2019-05-18T20:37:33.777Z,6.57
2019-05-18T20:40:02.793Z,7.03
2019-05-18T20:42:32.235Z,6.53
2019-05-18T20:45:01.262Z,6.37
2019-05-18T20:47:30.298Z,7.13
2019-05-18T20:49:59.667Z,6.97
2019-05-18T20:52:28.708Z,6.80
2019-05-18T20:54:58.594Z,7.53
2019-05-18T20:57:27.683Z,7.10
2019-05-18T20:59:56.654Z,7.17
2019-05-18T21:02:25.740Z,6.93
2019-05-18T21:04:54.828Z,6.63
2019-05-18T21:07:23.870Z,7.03
2019-05-18T21:09:53.021Z,7.33
2019-05-18T21:12:22.179Z,7.93
2019-05-18T21:14:51.176Z,7.50
2019-05-18T21:17:20.148Z,7.50
2019-05-18T21:19:49.161Z,8.70
2019-05-18T21:22:18.234Z,13.97
2019-05-18T21:24:47.532Z,7.00
2019-05-18T21:27:16.639Z,6.73
2019-05-18T21:29:45.787Z,7.03
2019-05-18T21:32:14.886Z,6.90
2019-05-18T21:34:44.200Z,7.87
2019-05-18T21:37:13.196Z,8.77
2019-05-18T21:39:42.110Z,8.53
2019-05-18T21:42:11.288Z,8.80
2019-05-18T21:44:40.344Z,8.00
2019-05-18T21:47:09.419Z,9.27
2019-05-18T21:49:38.556Z,8.07
2019-05-18T21:52:07.676Z,8.70
2019-05-18T21:54:36.684Z,7.57
2019-05-18T21:57:05.659Z,7.47
2019-05-18T21:59:34.793Z,7.57
2019-05-18T22:02:03.944Z,7.73
2019-05-18T22:04:32.933Z,8.63
2019-05-18T22:07:02.079Z,7.73
2019-05-18T22:09:31.243Z,6.70
2019-05-18T22:12:00.161Z,7.27
2019-05-18T22:14:29.723Z,7.80
2019-05-18T22:16:59.357Z,8.10
2019-05-18T22:19:28.385Z,7.70
2019-05-18T22:21:57.376Z,8.60
2019-05-18T22:24:26.430Z,8.40
2019-05-18T22:26:55.685Z,9.17
2019-05-18T22:29:24.649Z,9.80
2019-05-18T22:31:53.700Z,8.77
2019-05-18T22:34:22.789Z,11.73
2019-05-18T22:36:52.201Z,10.73
2019-05-18T22:39:21.154Z,10.37
2019-05-18T22:41:50.129Z,9.87
2019-05-18T22:44:19.029Z,8.57
2019-05-18T22:46:47.973Z,10.43
2019-05-18T22:49:17.049Z,10.60
2019-05-18T22:51:46.109Z,9.73
2019-05-18T22:54:15.139Z,13.10
2019-05-18T22:56:44.237Z,10.50
2019-05-18T22:59:13.199Z,10.80
2019-05-18T23:01:42.225Z,11.53
2019-05-18T23:04:11.466Z,11.90
2019-05-18T23:06:40.439Z,11.83
2019-05-18T23:09:09.502Z,14.23
2019-05-18T23:11:38.538Z,13.70
2019-05-18T23:14:07.612Z,13.60
2019-05-18T23:16:36.666Z,15.10
2019-05-18T23:19:06.022Z,13.27
2019-05-18T23:21:34.930Z,10.70
2019-05-18T23:24:04.094Z,10.53
2019-05-18T23:26:33.050Z,10.83
2019-05-18T23:29:01.997Z,11.20
2019-05-18T23:31:31.036Z,11.37
2019-05-18T23:33:59.903Z,10.70
2019-05-18T23:36:29.011Z,11.57
2019-05-18T23:38:58.223Z,10.90
2019-05-18T23:41:27.183Z,11.60
2019-05-18T23:43:56.415Z,11.53
2019-05-18T23:46:25.375Z,12.47
2019-05-18T23:48:54.343Z,11.80
2019-05-18T23:51:23.435Z,12.03
2019-05-18T23:53:53.888Z,11.70
2019-05-18T23:56:23.307Z,11.57
2019-05-18T23:58:52.337Z,11.60
